Time;durP1;ratioP1;P1;durP2;ratioP2;P2;SDS_P1;SDS_P2;PMS_P1;PMS_P2;Temp;Humidity;BMP_temperature;BMP_pressure;BME280_temperature;BME280_humidity;BME280_pressure;Samples;Min_cycle;Max_cycle;Signal;HPM_P1;HPM_P2
2022/12/18 00:00:28;;;;;;;;;;;;;;;-4.53;100.00;102771.63;5066683;28;20105;-72
2022/12/18 00:02:55;;;;;;;;;;;;;;;-4.54;100.00;102764.66;5066917;28;19932;-73
2022/12/18 00:05:20;;;;;;;;;;;;;;;-4.54;100.00;102760.41;5067315;28;19929;-72
2022/12/18 00:07:45;;;;;;;;;;;;;;;-4.55;100.00;102749.97;5066881;28;19933;-72
2022/12/18 00:10:11;;;;;;;;;;;;;;;-4.59;100.00;102754.09;5066799;28;20436;-72
2022/12/18 00:12:36;;;;;;;;;;;;;;;-4.64;100.00;102759.06;5067130;28;19928;-72
2022/12/18 00:15:02;;;;;;;;;;;;;;;-4.66;100.00;102752.94;5048471;28;19935;-71
2022/12/18 00:17:27;;;;;;;;;;;;;;;-4.65;100.00;102757.28;5066842;28;19924;-72
2022/12/18 00:19:53;;;;;;;;;;;;;;;-4.65;100.00;102758.97;5066897;28;19973;-72
2022/12/18 00:22:18;;;;;;;;;;;;;;;-4.65;100.00;102756.41;5066545;28;20311;-72
2022/12/18 00:24:43;;;;;;;;;;;;;;;-4.70;100.00;102763.94;5066519;28;20341;-72
2022/12/18 00:27:09;;;;;;;;;;;;;;;-4.71;100.00;102763.84;5066487;28;19928;-72
2022/12/18 00:29:34;;;;;;;;;;;;;;;-4.72;100.00;102762.09;5066774;28;20037;-72
2022/12/18 00:32:00;;;;;;;;;;;;;;;-4.72;100.00;102769.84;5066470;28;19932;-72
2022/12/18 00:34:25;;;;;;;;;;;;;;;-4.73;100.00;102771.56;5066041;28;19932;-72
2022/12/18 00:36:50;;;;;;;;;;;;;;;-4.73;100.00;102771.56;5067027;28;20025;-72
2022/12/18 00:39:16;;;;;;;;;;;;;;;-4.73;100.00;102773.25;5056506;28;20396;-72
2022/12/18 00:44:25;;;;;;;;;;;;;;;-4.75;100.00;102756.78;5066593;28;19932;-72
2022/12/18 00:46:51;;;;;;;;;;;;;;;-4.77;100.00;102765.34;5066005;28;19928;-72
2022/12/18 00:49:17;;;;;;;;;;;;;;;-4.75;100.00;102769.69;5065892;28;20626;-72
2022/12/18 00:51:43;;;;;;;;;;;;;;;-4.76;100.00;102771.38;5047136;28;19932;-72
2022/12/18 00:54:09;;;;;;;;;;;;;;;-4.76;100.00;102766.22;5050595;28;19959;-72
2022/12/18 00:56:35;;;;;;;;;;;;;;;-4.77;100.00;102767.03;5030087;28;20315;-72
2022/12/18 00:59:01;;;;;;;;;;;;;;;-4.76;100.00;102766.22;5065857;28;19932;-73
2022/12/18 01:01:26;;;;;;;;;;;;;;;-4.77;100.00;102778.28;5065367;28;19935;-72
2022/12/18 01:03:52;;;;;;;;;;;;;;;-4.77;100.00;102772.19;5066212;28;20026;-72
2022/12/18 01:06:17;;;;;;;;;;;;;;;-4.81;100.00;102785.78;5065958;28;19928;-72
2022/12/18 01:08:42;;;;;;;;;;;;;;;-4.85;100.00;102787.31;5046218;28;20005;-72
2022/12/18 01:11:12;;;;;;;;;;;;;;;-4.87;100.00;102783.78;5046699;28;19924;-72
2022/12/18 01:13:38;;;;;;;;;;;;;;;-4.88;100.00;102776.84;5046737;28;20295;-72
2022/12/18 01:16:03;;;;;;;;;;;;;;;-4.91;100.00;102772.41;5065774;28;19928;-72
2022/12/18 01:18:29;;;;;;;;;;;;;;;-4.91;100.00;102771.50;5046320;28;19996;-72
2022/12/18 01:20:54;;;;;;;;;;;;;;;-4.92;100.00;102774.91;5066073;28;19928;-73
2022/12/18 01:23:19;;;;;;;;;;;;;;;-4.92;100.00;102775.81;5046005;28;20326;-72
2022/12/18 01:25:45;;;;;;;;;;;;;;;-4.93;100.00;102763.69;5065946;28;20456;-72
2022/12/18 01:28:10;;;;;;;;;;;;;;;-4.94;100.00;102763.63;5066522;28;20280;-72
2022/12/18 01:30:36;;;;;;;;;;;;;;;-4.97;100.00;102772.09;5046392;28;20043;-72
2022/12/18 01:33:01;;;;;;;;;;;;;;;-4.99;100.00;102776.31;5065664;28;20020;-72
2022/12/18 01:35:27;;;;;;;;;;;;;;;-5.00;100.00;102778.81;5045154;28;19946;-73
2022/12/18 01:37:55;;;;;;;;;;;;;;;-5.00;100.00;102787.47;5065390;28;20026;-72
2022/12/18 01:40:21;;;;;;;;;;;;;;;-5.01;100.00;102789.97;5046298;28;19924;-72
2022/12/18 01:42:52;;;;;;;;;;;;;;;-5.01;100.00;102805.47;5065818;28;20368;-72
2022/12/18 01:45:18;;;;;;;;;;;;;;;-5.06;100.00;102803.53;5045487;28;19924;-72
2022/12/18 01:47:43;;;;;;;;;;;;;;;-5.06;100.00;102811.28;5065452;28;19931;-72
2022/12/18 01:50:11;;;;;;;;;;;;;;;-5.10;100.00;102814.53;5065858;28;19994;-72
2022/12/18 01:52:37;;;;;;;;;;;;;;;-5.12;100.00;102821.28;5065010;28;19920;-72
2022/12/18 01:55:03;;;;;;;;;;;;;;;-5.11;100.00;102811.84;5045680;28;19934;-72
2022/12/18 01:57:28;;;;;;;;;;;;;;;-5.12;100.00;102818.69;5045979;28;19924;-73
2022/12/18 01:59:55;;;;;;;;;;;;;;;-5.13;100.00;102816.06;5064321;28;19975;-72
2022/12/18 02:02:21;;;;;;;;;;;;;;;-5.14;100.00;102811.72;5045604;28;19940;-73
2022/12/18 02:04:46;;;;;;;;;;;;;;;-5.16;100.00;102811.63;5045527;28;19924;-72
2022/12/18 02:07:12;;;;;;;;;;;;;;;-5.16;100.00;102816.78;5064467;28;19928;-72
2022/12/18 02:09:45;;;;;;;;;;;;;;;-5.18;100.00;102813.22;5064785;28;19920;-73
2022/12/18 02:12:11;;;;;;;;;;;;;;;-5.22;100.00;102809.59;5045399;28;20054;-73
2022/12/18 02:14:42;;;;;;;;;;;;;;;-5.25;100.00;102808.56;5064100;28;20401;-72
2022/12/18 02:17:13;;;;;;;;;;;;;;;-5.27;100.00;102811.06;5064539;28;19928;-72
2022/12/18 02:19:48;;;;;;;;;;;;;;;-5.32;100.00;102816.00;5054305;28;19920;-72
2022/12/18 02:22:16;;;;;;;;;;;;;;;-5.35;100.00;102815.84;5064368;28;19924;-72
2022/12/18 02:24:45;;;;;;;;;;;;;;;-5.37;100.00;102807.13;5064208;28;20405;-72
2022/12/18 02:27:10;;;;;;;;;;;;;;;-5.40;100.00;102794.03;5045472;28;19928;-73
2022/12/18 02:29:36;;;;;;;;;;;;;;;-5.43;100.00;102793.91;5028371;28;21558;-72
2022/12/18 02:32:01;;;;;;;;;;;;;;;-5.46;100.00;102785.97;5064836;28;22236;-72
2022/12/18 02:34:28;;;;;;;;;;;;;;;-5.49;100.00;102778.94;5029275;28;19963;-72
2022/12/18 02:36:53;;;;;;;;;;;;;;;-5.50;100.00;102784.06;5044783;28;19924;-72
2022/12/18 02:39:19;;;;;;;;;;;;;;;-5.53;100.00;102786.47;5048515;28;20330;-72
2022/12/18 02:41:44;;;;;;;;;;;;;;;-5.56;100.00;102792.34;5048563;28;19928;-73
2022/12/18 02:44:11;;;;;;;;;;;;;;;-5.59;100.00;102793.09;5045076;28;20005;-72
2022/12/18 02:46:37;;;;;;;;;;;;;;;-5.61;100.00;102791.25;5064728;28;19928;-72
2022/12/18 02:49:22;;;;;;;;;;;;;;;-5.65;100.00;102778.97;5064545;28;19928;-72
2022/12/18 02:51:48;;;;;;;;;;;;;;;-5.68;100.00;102784.84;5047982;28;20087;-72
2022/12/18 02:54:25;;;;;;;;;;;;;;;-5.72;100.00;102775.19;5064333;28;19945;-72
2022/12/18 02:56:51;;;;;;;;;;;;;;;-5.75;100.00;102768.16;5044754;28;19932;-72
2022/12/18 02:59:30;;;;;;;;;;;;;;;-5.77;100.00;102758.56;5048293;28;19929;-72
2022/12/18 03:02:04;;;;;;;;;;;;;;;-5.79;100.00;102773.06;5044891;28;19928;-72
2022/12/18 03:04:33;;;;;;;;;;;;;;;-5.83;100.00;102773.72;5064271;28;19930;-72
2022/12/18 03:06:59;;;;;;;;;;;;;;;-5.86;100.00;102769.28;5044524;28;19993;-72
2022/12/18 03:09:28;;;;;;;;;;;;;;;-5.90;100.00;102775.06;5054053;28;19928;-72
2022/12/18 03:14:39;;;;;;;;;;;;;;;-5.96;100.00;102791.13;5050616;28;19964;-72
2022/12/18 03:17:05;;;;;;;;;;;;;;;-5.96;100.00;102791.13;5044762;28;20046;-72
2022/12/18 03:19:32;;;;;;;;;;;;;;;-5.95;100.00;102779.13;5054197;28;19934;-72
2022/12/18 03:21:57;;;;;;;;;;;;;;;-5.95;100.00;102784.28;5063693;28;19925;-72
2022/12/18 03:24:23;;;;;;;;;;;;;;;-5.94;100.00;102786.91;5044820;28;19931;-72
2022/12/18 03:26:58;;;;;;;;;;;;;;;-5.93;100.00;102798.13;5044917;28;20043;-72
2022/12/18 03:29:28;;;;;;;;;;;;;;;-5.93;100.00;102787.81;5044066;28;19932;-72
2022/12/18 03:31:54;;;;;;;;;;;;;;;-5.95;100.00;102792.00;5054290;28;19929;-73
2022/12/18 03:34:21;;;;;;;;;;;;;;;-5.96;100.00;102788.53;5037492;28;20458;-73
2022/12/18 03:36:47;;;;;;;;;;;;;;;-6.00;100.00;102772.00;5047957;28;19975;-73
2022/12/18 03:39:12;;;;;;;;;;;;;;;-6.02;100.00;102768.47;5063542;28;19928;-73
2022/12/18 03:41:49;;;;;;;;;;;;;;;-6.04;100.00;102770.09;5063743;28;19925;-73
2022/12/18 03:44:19;;;;;;;;;;;;;;;-6.05;100.00;102770.03;5027408;28;20038;-72
2022/12/18 03:46:54;;;;;;;;;;;;;;;-6.08;100.00;102759.53;5054046;28;20520;-73
2022/12/18 03:49:24;;;;;;;;;;;;;;;-6.12;100.00;102760.19;5063383;28;19938;-73
2022/12/18 03:51:53;;;;;;;;;;;;;;;-6.16;100.00;102760.00;5063419;28;19932;-72
2022/12/18 03:54:18;;;;;;;;;;;;;;;-6.16;100.00;102765.16;5037031;28;19928;-73
2022/12/18 03:56:48;;;;;;;;;;;;;;;-6.19;100.00;102775.31;5044581;28;19929;-73
2022/12/18 03:59:13;;;;;;;;;;;;;;;-6.20;100.00;102788.13;5056252;28;19924;-73
2022/12/18 04:01:40;;;;;;;;;;;;;;;-6.24;100.00;102791.31;5047946;28;20237;-73
2022/12/18 04:04:05;;;;;;;;;;;;;;;-6.27;100.00;102786.88;5047623;28;21490;-73
2022/12/18 04:06:31;;;;;;;;;;;;;;;-6.31;100.00;102780.66;5040587;28;20390;-72
2022/12/18 04:08:57;;;;;;;;;;;;;;;-6.32;100.00;102776.31;5040277;28;19929;-73
2022/12/18 04:11:23;;;;;;;;;;;;;;;-6.32;100.00;102783.19;5047566;28;19928;-73
2022/12/18 04:13:48;;;;;;;;;;;;;;;-6.36;100.00;102787.28;5046028;28;19932;-73
2022/12/18 04:16:13;;;;;;;;;;;;;;;-6.41;100.00;102773.22;5057001;28;19928;-73
2022/12/18 04:18:38;;;;;;;;;;;;;;;-6.45;100.00;102772.19;5047612;28;20355;-73
2022/12/18 04:21:04;;;;;;;;;;;;;;;-6.48;100.00;102777.13;5046698;28;19928;-73
2022/12/18 04:23:29;;;;;;;;;;;;;;;-6.50;100.00;102768.44;5047322;28;20353;-73
2022/12/18 04:25:55;;;;;;;;;;;;;;;-6.51;100.00;102770.94;5066762;28;19928;-73
2022/12/18 04:28:20;;;;;;;;;;;;;;;-6.55;100.00;102780.19;5056601;28;19932;-73
2022/12/18 04:30:48;;;;;;;;;;;;;;;-6.60;100.00;102767.03;5066763;28;20065;-73
2022/12/18 04:33:14;;;;;;;;;;;;;;;-6.62;100.00;102778.97;5066732;28;19963;-73
2022/12/18 04:35:39;;;;;;;;;;;;;;;-6.65;100.00;102772.75;5066217;28;20408;-73
2022/12/18 04:38:05;;;;;;;;;;;;;;;-6.70;100.00;102759.59;5047253;28;20002;-72
2022/12/18 04:40:31;;;;;;;;;;;;;;;-6.73;100.00;102762.88;5056239;28;19971;-73
2022/12/18 04:42:56;;;;;;;;;;;;;;;-6.74;100.00;102775.69;5066229;28;19939;-73
2022/12/18 04:45:21;;;;;;;;;;;;;;;-6.75;100.00;102773.91;5066503;28;20354;-73
2022/12/18 04:47:47;;;;;;;;;;;;;;;-6.76;100.00;102785.88;5066599;28;20387;-72
2022/12/18 04:50:12;;;;;;;;;;;;;;;-6.79;100.00;102789.97;5065688;28;20007;-74
2022/12/18 04:52:38;;;;;;;;;;;;;;;-6.84;100.00;102779.41;5066074;28;19955;-74
2022/12/18 04:55:03;;;;;;;;;;;;;;;-6.86;100.00;102778.44;5046806;28;19936;-74
2022/12/18 04:57:29;;;;;;;;;;;;;;;-6.89;100.00;102779.16;5065789;28;20025;-72
2022/12/18 04:59:54;;;;;;;;;;;;;;;-6.89;100.00;102780.81;5066881;28;20023;-72
2022/12/18 05:02:20;;;;;;;;;;;;;;;-6.89;100.00;102783.41;5046645;28;20476;-73
2022/12/18 05:04:45;;;;;;;;;;;;;;;-6.88;100.00;102780.94;5065441;28;19997;-72
2022/12/18 05:07:11;;;;;;;;;;;;;;;-6.87;100.00;102776.69;5056353;28;20160;-73
2022/12/18 05:09:36;;;;;;;;;;;;;;;-6.91;100.00;102780.75;5065959;28;19929;-72
2022/12/18 05:12:01;;;;;;;;;;;;;;;-6.90;100.00;102781.63;5065717;28;20436;-72
2022/12/18 05:14:28;;;;;;;;;;;;;;;-6.90;100.00;102781.63;5066404;28;19978;-73
2022/12/18 05:16:54;;;;;;;;;;;;;;;-6.90;100.00;102787.69;5066248;28;19928;-73
2022/12/18 05:19:19;;;;;;;;;;;;;;;-6.89;100.00;102788.56;5064792;28;20410;-73
2022/12/18 05:21:45;;;;;;;;;;;;;;;-6.90;100.00;102791.94;5066191;28;19932;-72
2022/12/18 05:24:10;;;;;;;;;;;;;;;-6.91;100.00;102793.63;5065613;28;19928;-73
2022/12/18 05:26:35;;;;;;;;;;;;;;;-6.94;100.00;102798.59;5049711;28;19924;-72
2022/12/18 05:29:01;;;;;;;;;;;;;;;-6.94;100.00;102800.31;5065459;28;19928;-73
2022/12/18 05:31:26;;;;;;;;;;;;;;;-6.96;100.00;102811.38;5046459;28;20472;-74
2022/12/18 05:33:51;;;;;;;;;;;;;;;-6.97;100.00;102812.19;5065073;28;19931;-73
2022/12/18 05:36:17;;;;;;;;;;;;;;;-6.97;100.00;102814.75;5065366;28;19928;-73
2022/12/18 05:38:42;;;;;;;;;;;;;;;-6.96;100.00;102823.38;5065558;28;20423;-73
2022/12/18 05:41:08;;;;;;;;;;;;;;;-6.96;100.00;102823.38;5065072;28;19925;-74
2022/12/18 05:43:34;;;;;;;;;;;;;;;-6.95;100.00;102830.31;5032436;28;19939;-73
2022/12/18 05:46:03;;;;;;;;;;;;;;;-6.96;100.00;102836.25;5049669;28;20015;-74
2022/12/18 05:48:28;;;;;;;;;;;;;;;-6.97;100.00;102835.38;5046047;28;19928;-74
2022/12/18 05:50:54;;;;;;;;;;;;;;;-6.98;100.00;102835.28;5064947;28;19975;-74
2022/12/18 05:53:19;;;;;;;;;;;;;;;-7.00;100.00;102837.78;5066704;28;19978;-73
2022/12/18 05:55:45;;;;;;;;;;;;;;;-7.03;100.00;102837.56;5038222;28;19936;-74
2022/12/18 05:58:11;;;;;;;;;;;;;;;-7.02;100.00;102838.47;5055061;28;20408;-73
2022/12/18 06:00:39;;;;;;;;;;;;;;;-7.00;100.00;102837.78;5044999;28;19928;-73
2022/12/18 06:03:05;;;;;;;;;;;;;;;-7.04;100.00;102830.66;5064947;28;19997;-74
2022/12/18 06:05:34;;;;;;;;;;;;;;;-7.06;100.00;102833.94;5055126;28;19924;-74
2022/12/18 06:07:59;;;;;;;;;;;;;;;-7.09;100.00;102824.31;5065259;28;19929;-74
2022/12/18 06:10:24;;;;;;;;;;;;;;;-7.14;100.00;102821.50;5064972;28;19997;-73
2022/12/18 06:12:50;;;;;;;;;;;;;;;-7.15;100.00;102821.41;5064933;28;20003;-73
2022/12/18 06:15:15;;;;;;;;;;;;;;;-7.19;100.00;102822.03;5065099;28;19928;-73
2022/12/18 06:17:41;;;;;;;;;;;;;;;-7.19;100.00;102822.03;5061944;28;20034;-74
2022/12/18 06:20:06;;;;;;;;;;;;;;;-7.23;100.00;102820.94;5064067;28;20537;-74
2022/12/18 06:22:32;;;;;;;;;;;;;;;-7.28;100.00;102802.66;5064370;28;19929;-73
2022/12/18 06:24:57;;;;;;;;;;;;;;;-7.29;100.00;102797.41;5044212;28;19925;-74
2022/12/18 06:27:23;;;;;;;;;;;;;;;-7.32;100.00;102797.25;5064378;28;19928;-73
2022/12/18 06:29:48;;;;;;;;;;;;;;;-7.36;100.00;102791.88;5064744;28;19931;-73
2022/12/18 06:32:13;;;;;;;;;;;;;;;-7.39;100.00;102780.53;5065240;28;19925;-74
2022/12/18 06:34:39;;;;;;;;;;;;;;;-7.41;100.00;102782.13;5064466;28;19975;-74
2022/12/18 06:37:04;;;;;;;;;;;;;;;-7.42;100.00;102775.22;5054839;28;20535;-73
2022/12/18 06:39:30;;;;;;;;;;;;;;;-7.44;100.00;102776.78;5064749;28;20485;-73
2022/12/18 06:41:55;;;;;;;;;;;;;;;-7.44;100.00;102769.06;5064134;28;19924;-74
2022/12/18 06:44:20;;;;;;;;;;;;;;;-7.42;100.00;102772.63;5064418;28;20014;-73
2022/12/18 06:46:46;;;;;;;;;;;;;;;-7.42;100.00;102782.94;5045298;28;19978;-74
2022/12/18 06:49:12;;;;;;;;;;;;;;;-7.40;100.00;102771.91;5064047;28;20043;-74
2022/12/18 06:51:37;;;;;;;;;;;;;;;-7.41;100.00;102779.56;5061704;28;20016;-73
2022/12/18 06:54:03;;;;;;;;;;;;;;;-7.44;100.00;102767.38;5063788;28;19947;-73
2022/12/18 06:56:28;;;;;;;;;;;;;;;-7.47;100.00;102772.34;5063889;28;19924;-73
2022/12/18 06:58:54;;;;;;;;;;;;;;;-7.48;100.00;102760.25;5064661;28;19989;-73
2022/12/18 07:01:22;;;;;;;;;;;;;;;-7.51;100.00;102760.09;5046226;28;20647;-74
2022/12/18 07:03:51;;;;;;;;;;;;;;;-7.51;100.00;102760.09;5054831;28;20011;-73
2022/12/18 07:06:20;;;;;;;;;;;;;;;-7.55;100.00;102747.84;5045039;28;19924;-74
2022/12/18 07:08:45;;;;;;;;;;;;;;;-7.53;100.00;102761.66;5045362;28;19924;-73
2022/12/18 07:11:11;;;;;;;;;;;;;;;-7.57;100.00;102747.72;5048579;28;19924;-73
2022/12/18 07:13:36;;;;;;;;;;;;;;;-7.57;100.00;102750.31;5064215;28;19977;-73
2022/12/18 07:16:06;;;;;;;;;;;;;;;-7.55;100.00;102750.41;5064610;28;19934;-73
2022/12/18 07:18:31;;;;;;;;;;;;;;;-7.55;100.00;102759.03;5064087;28;19932;-73
2022/12/18 07:20:56;;;;;;;;;;;;;;;-7.55;100.00;102761.59;5053480;28;20570;-74
2022/12/18 07:23:22;;;;;;;;;;;;;;;-7.56;100.00;102758.94;5064153;28;20022;-73
2022/12/18 07:25:47;;;;;;;;;;;;;;;-7.56;100.00;102757.25;5042398;28;19924;-74
2022/12/18 07:28:12;;;;;;;;;;;;;;;-7.56;100.00;102752.09;5063857;28;20398;-74
2022/12/18 07:30:38;;;;;;;;;;;;;;;-7.56;100.00;102740.91;5064073;28;19994;-73
2022/12/18 07:33:03;;;;;;;;;;;;;;;-7.56;100.00;102746.06;5045355;28;20004;-74
2022/12/18 07:35:29;;;;;;;;;;;;;;;-7.57;100.00;102747.72;5048453;28;20359;-73
2022/12/18 07:37:54;;;;;;;;;;;;;;;-7.56;100.00;102754.69;5068172;28;20081;-73
2022/12/18 07:40:19;;;;;;;;;;;;;;;-7.54;100.00;102760.78;5066956;28;19984;-73
2022/12/18 07:42:45;;;;;;;;;;;;;;;-7.54;100.00;102755.66;5067834;28;22236;-74
2022/12/18 07:45:10;;;;;;;;;;;;;;;-7.51;100.00;102757.53;5067554;28;19928;-74
2022/12/18 07:47:36;;;;;;;;;;;;;;;-7.52;100.00;102751.47;5067314;28;19939;-74
2022/12/18 07:50:02;;;;;;;;;;;;;;;-7.51;100.00;102740.38;5067512;28;21501;-74
2022/12/18 07:52:27;;;;;;;;;;;;;;;-7.47;100.00;102740.56;5054290;28;20313;-74
2022/12/18 07:54:53;;;;;;;;;;;;;;;-7.47;100.00;102738.88;5047173;28;19971;-73
2022/12/18 07:57:18;;;;;;;;;;;;;;;-7.43;100.00;102739.94;5067949;28;19932;-74
2022/12/18 07:59:43;;;;;;;;;;;;;;;-7.39;100.00;102741.91;5067224;28;19932;-74
2022/12/18 08:02:09;;;;;;;;;;;;;;;-7.36;100.00;102731.78;5047214;28;20051;-74
2022/12/18 08:04:34;;;;;;;;;;;;;;;-7.34;100.00;102735.38;5067306;28;20522;-74
2022/12/18 08:07:00;;;;;;;;;;;;;;;-7.32;100.00;102730.31;5067369;28;19932;-74
2022/12/18 08:09:25;;;;;;;;;;;;;;;-7.32;100.00;102731.19;5066435;28;19956;-74
2022/12/18 08:11:50;;;;;;;;;;;;;;;-7.31;100.00;102730.38;5031313;28;19934;-74
2022/12/18 08:14:16;;;;;;;;;;;;;;;-7.29;100.00;102733.97;5067388;28;20730;-74
2022/12/18 08:16:41;;;;;;;;;;;;;;;-7.27;100.00;102724.63;5066629;28;20613;-74
2022/12/18 08:19:07;;;;;;;;;;;;;;;-7.25;100.00;102725.59;5067032;28;20714;-74
2022/12/18 08:21:32;;;;;;;;;;;;;;;-7.20;100.00;102732.72;5046301;28;19932;-73
2022/12/18 08:23:59;;;;;;;;;;;;;;;-7.18;100.00;102737.16;5047358;28;19989;-74
2022/12/18 08:26:25;;;;;;;;;;;;;;;-7.14;100.00;102739.09;5066392;28;19928;-74
2022/12/18 08:28:51;;;;;;;;;;;;;;;-7.12;100.00;102741.75;5047681;28;19963;-74
2022/12/18 08:31:16;;;;;;;;;;;;;;;-7.10;100.00;102738.47;5050418;28;20015;-74
2022/12/18 08:33:42;;;;;;;;;;;;;;;-7.06;100.00;102739.53;5066664;28;19935;-74
2022/12/18 08:36:08;;;;;;;;;;;;;;;-6.99;100.00;102738.19;5047171;28;19924;-74
2022/12/18 08:38:33;;;;;;;;;;;;;;;-6.96;100.00;102738.38;5047495;28;19931;-73
2022/12/18 08:41:03;;;;;;;;;;;;;;;-6.92;100.00;102742.03;5056494;28;19932;-74
2022/12/18 08:46:13;;;;;;;;;;;;;;;-6.77;100.00;102742.03;5066058;28;20312;-74
2022/12/18 08:48:38;;;;;;;;;;;;;;;-6.70;100.00;102728.69;5046674;28;19962;-74
2022/12/18 08:51:04;;;;;;;;;;;;;;;-6.65;100.00;102722.06;5046016;28;19924;-74
2022/12/18 08:53:29;;;;;;;;;;;;;;;-6.57;100.00;102730.25;5066258;28;19929;-73
2022/12/18 08:55:55;;;;;;;;;;;;;;;-6.49;100.00;102736.69;5066388;28;19932;-74
2022/12/18 08:58:21;;;;;;;;;;;;;;;-6.42;100.00;102738.81;5066287;28;20314;-72
2022/12/18 09:00:46;;;;;;;;;;;;;;;-6.35;100.00;102739.16;5046576;28;19928;-72
2022/12/18 09:03:13;;;;;;;;;;;;;;;-6.28;100.00;102738.69;5065954;28;20076;-72
2022/12/18 09:05:38;;;;;;;;;;;;;;;-6.19;100.00;102748.63;5046612;28;19928;-72
2022/12/18 09:08:03;;;;;;;;;;;;;;;-6.12;100.00;102755.03;5065926;28;19935;-72
2022/12/18 09:10:29;;;;;;;;;;;;;;;-6.06;100.00;102750.19;5065695;28;20448;-72
2022/12/18 09:12:55;;;;;;;;;;;;;;;-6.01;100.00;102735.78;5046790;28;19932;-72
2022/12/18 09:15:21;;;;;;;;;;;;;;;-5.95;100.00;102732.69;5052638;28;20305;-73
2022/12/18 09:17:47;;;;;;;;;;;;;;;-5.88;100.00;102735.66;5065636;28;19932;-72
2022/12/18 09:20:13;;;;;;;;;;;;;;;-5.80;100.00;102735.16;5065785;28;19928;-72
2022/12/18 09:22:38;;;;;;;;;;;;;;;-5.74;100.00;102749.28;5065757;28;20786;-72
2022/12/18 09:25:07;;;;;;;;;;;;;;;-5.67;100.00;102750.47;5046294;28;19932;-72
2022/12/18 09:27:32;;;;;;;;;;;;;;;-5.60;100.00;102739.66;5065472;28;20391;-72
2022/12/18 09:29:57;;;;;;;;;;;;;;;-5.52;100.00;102749.50;5065453;28;19939;-72
2022/12/18 09:32:23;;;;;;;;;;;;;;;-5.43;100.00;102743.94;5049985;28;19935;-72
2022/12/18 09:34:49;;;;;;;;;;;;;;;-5.34;100.00;102755.63;5065382;28;20092;-72
2022/12/18 09:37:14;;;;;;;;;;;;;;;-5.25;100.00;102741.41;5065526;28;19981;-72
2022/12/18 09:39:39;;;;;;;;;;;;;;;-5.19;100.00;102744.28;5065465;28;19928;-72
2022/12/18 09:42:06;;;;;;;;;;;;;;;-5.14;100.00;102739.38;5045787;28;22124;-72
2022/12/18 09:44:41;;;;;;;;;;;;;;;-5.11;100.00;102740.41;5065392;28;20966;-72
2022/12/18 09:47:17;;;;;;;;;;;;;;;-5.07;100.00;102739.75;5038987;28;19928;-72
2022/12/18 09:49:44;;;;;;;;;;;;;;;-5.06;100.00;102731.19;5049218;28;20410;-72
2022/12/18 09:52:11;;;;;;;;;;;;;;;-5.02;100.00;102723.59;5045777;28;19929;-72
2022/12/18 09:54:40;;;;;;;;;;;;;;;-4.99;100.00;102721.16;5045019;28;19932;-72
2022/12/18 09:57:05;;;;;;;;;;;;;;;-4.96;100.00;102719.59;5037825;28;20548;-72
2022/12/18 09:59:39;;;;;;;;;;;;;;;-4.93;100.00;102706.84;5065033;28;19939;-71
2022/12/18 10:02:18;;;;;;;;;;;;;;;-4.88;100.00;102688.06;5055902;28;19924;-72
2022/12/18 10:04:44;;;;;;;;;;;;;;;-4.85;100.00;102681.34;5044439;28;21481;-71
2022/12/18 10:07:20;;;;;;;;;;;;;;;-4.78;100.00;102685.13;5048695;28;20027;-72
2022/12/18 10:10:00;;;;;;;;;;;;;;;-4.74;100.00;102686.16;5064650;28;20363;-73
2022/12/18 10:12:25;;;;;;;;;;;;;;;-4.70;100.00;102685.47;5045139;28;19931;-73
2022/12/18 10:14:57;;;;;;;;;;;;;;;-4.68;100.00;102674.41;5063089;28;19971;-72
2022/12/18 10:17:26;;;;;;;;;;;;;;;-4.65;100.00;102668.50;5064208;28;19930;-73
2022/12/18 10:19:53;;;;;;;;;;;;;;;-4.62;100.00;102660.91;5049358;28;20408;-73
2022/12/18 10:22:21;;;;;;;;;;;;;;;-4.58;100.00;102652.47;5044983;28;19928;-71
2022/12/18 10:24:53;;;;;;;;;;;;;;;-4.52;100.00;102659.63;5064700;28;20116;-73
2022/12/18 10:27:21;;;;;;;;;;;;;;;-4.48;100.00;102650.31;5054606;28;20069;-72
2022/12/18 10:29:47;;;;;;;;;;;;;;;-4.43;100.00;102651.38;5031105;28;20383;-71
2022/12/18 10:32:19;;;;;;;;;;;;;;;-4.39;100.00;102651.63;5054534;28;19960;-73
2022/12/18 10:34:48;;;;;;;;;;;;;;;-4.34;100.00;102659.59;5064819;28;19924;-72
2022/12/18 10:37:18;;;;;;;;;;;;;;;-4.29;100.00;102659.78;5044675;28;19950;-72
2022/12/18 10:39:44;;;;;;;;;;;;;;;-4.27;100.00;102651.28;5064651;28;19932;-71
2022/12/18 10:42:11;;;;;;;;;;;;;;;-4.24;100.00;102648.81;5064606;28;19950;-73
2022/12/18 10:44:36;;;;;;;;;;;;;;;-4.19;100.00;102655.91;5044549;28;20046;-72
2022/12/18 10:47:06;;;;;;;;;;;;;;;-4.16;100.00;102648.28;5044963;28;20082;-71
2022/12/18 10:49:32;;;;;;;;;;;;;;;-4.12;100.00;102642.44;5045567;28;19928;-72
2022/12/18 10:52:16;;;;;;;;;;;;;;;-4.10;100.00;102646.88;5044893;28;19955;-71
2022/12/18 10:55:08;;;;;;;;;;;;;;;-4.03;100.00;102649.72;5064152;28;20003;-71
2022/12/18 10:57:35;;;;;;;;;;;;;;;-3.97;100.00;102650.00;5060272;28;19939;-71
2022/12/18 11:00:19;;;;;;;;;;;;;;;-3.91;100.00;102651.97;5064077;28;21844;-71
2022/12/18 11:02:45;;;;;;;;;;;;;;;-3.86;100.00;102647.88;5054323;28;21482;-71
2022/12/18 11:05:24;;;;;;;;;;;;;;;-3.83;100.00;102635.94;5054170;28;19928;-72
2022/12/18 11:07:50;;;;;;;;;;;;;;;-3.78;100.00;102637.84;5056895;28;19948;-73
2022/12/18 11:10:16;;;;;;;;;;;;;;;-3.76;100.00;102631.91;5032249;28;20462;-73
2022/12/18 11:12:42;;;;;;;;;;;;;;;-3.74;100.00;102631.97;5068608;28;19928;-72
2022/12/18 11:15:13;;;;;;;;;;;;;;;-3.72;100.00;102633.81;5058282;28;19935;-72
2022/12/18 11:17:39;;;;;;;;;;;;;;;-3.70;100.00;102632.16;5058465;28;19929;-73
2022/12/18 11:20:19;;;;;;;;;;;;;;;-3.68;100.00;102634.84;5051892;28;19971;-73
2022/12/18 11:22:45;;;;;;;;;;;;;;;-3.69;100.00;102614.94;5048240;28;19958;-73
2022/12/18 11:25:10;;;;;;;;;;;;;;;-3.67;100.00;102620.19;5041249;28;19928;-72
2022/12/18 11:27:36;;;;;;;;;;;;;;;-3.67;100.00;102608.13;5068462;28;19928;-72
2022/12/18 11:30:09;;;;;;;;;;;;;;;-3.67;100.00;102604.66;5041465;28;19972;-72
2022/12/18 11:32:44;;;;;;;;;;;;;;;-3.65;100.00;102608.19;5052079;28;19935;-73
2022/12/18 11:35:13;;;;;;;;;;;;;;;-3.64;100.00;102599.59;5057647;28;20009;-72
2022/12/18 11:37:42;;;;;;;;;;;;;;;-3.62;100.00;102597.94;5057728;28;19928;-73
2022/12/18 11:40:10;;;;;;;;;;;;;;;-3.62;100.00;102580.72;5067503;28;20023;-73
2022/12/18 11:42:38;;;;;;;;;;;;;;;-3.59;100.00;102569.59;5057602;28;20039;-72
2022/12/18 11:45:06;;;;;;;;;;;;;;;-3.59;100.00;102565.28;5057706;28;20025;-72
2022/12/18 11:47:39;;;;;;;;;;;;;;;-3.58;100.00;102564.50;5067663;28;20035;-72
2022/12/18 11:50:15;;;;;;;;;;;;;;;-3.56;100.00;102559.34;5041031;28;19928;-72
2022/12/18 11:52:40;;;;;;;;;;;;;;;-3.56;100.00;102549.00;5067595;28;20426;-72
2022/12/18 11:55:35;;;;;;;;;;;;;;;-3.56;100.00;102549.00;5067133;28;21481;-72
2022/12/18 11:58:19;;;;;;;;;;;;;;;-3.53;100.00;102546.53;5048738;28;20319;-72
2022/12/18 12:00:57;;;;;;;;;;;;;;;-3.52;100.00;102530.19;5067533;28;20199;-73
2022/12/18 12:03:29;;;;;;;;;;;;;;;-3.49;100.00;102512.16;5067347;28;20481;-73
2022/12/18 12:06:10;;;;;;;;;;;;;;;-3.46;100.00;102504.53;5066622;28;19924;-73
2022/12/18 12:08:54;;;;;;;;;;;;;;;-3.43;100.00;102512.41;5067378;28;19928;-73
2022/12/18 12:11:35;;;;;;;;;;;;;;;-3.38;100.00;102503.94;5067416;28;19967;-72
2022/12/18 12:14:04;;;;;;;;;;;;;;;-3.35;100.00;102497.19;5066581;28;20005;-73
2022/12/18 12:16:29;;;;;;;;;;;;;;;-3.31;100.00;102490.41;5057224;28;19924;-72
2022/12/18 12:19:04;;;;;;;;;;;;;;;-3.28;100.00;102487.91;5050682;28;19931;-73
2022/12/18 12:21:42;;;;;;;;;;;;;;;-3.25;100.00;102494.94;5066102;28;19939;-73
2022/12/18 12:24:30;;;;;;;;;;;;;;;-3.22;100.00;102493.34;5051047;28;19924;-73
2022/12/18 12:27:02;;;;;;;;;;;;;;;-3.19;100.00;102489.97;5047655;28;20046;-73
2022/12/18 12:29:40;;;;;;;;;;;;;;;-3.18;100.00;102496.94;5057152;28;19928;-72
2022/12/18 12:32:06;;;;;;;;;;;;;;;-3.17;100.00;102486.63;5066894;28;19978;-72
2022/12/18 12:34:39;;;;;;;;;;;;;;;-3.15;100.00;102484.09;5066866;28;20073;-72
2022/12/18 12:37:23;;;;;;;;;;;;;;;-3.14;100.00;102470.31;5050585;28;19965;-73